createdAt,value
2018-08-24T00:02:13.113Z,16.60
2018-08-24T00:04:41.224Z,16.60
2018-08-24T00:07:09.318Z,16.50
2018-08-24T00:09:37.363Z,16.50
2018-08-24T00:12:05.516Z,16.60
2018-08-24T00:14:33.597Z,16.50
2018-08-24T00:17:01.794Z,16.50
2018-08-24T00:19:29.854Z,16.50
2018-08-24T00:21:57.954Z,16.40
2018-08-24T00:24:26.057Z,16.30
2018-08-24T00:26:54.139Z,16.30
2018-08-24T00:29:22.255Z,16.30
2018-08-24T00:31:50.363Z,16.20
2018-08-24T00:34:18.982Z,16.10
2018-08-24T00:36:47.055Z,16.10
2018-08-24T00:39:15.170Z,16.10
2018-08-24T00:41:43.234Z,16.00
2018-08-24T00:44:11.311Z,16.00
2018-08-24T00:46:39.416Z,15.90
2018-08-24T00:49:08.028Z,16.00
2018-08-24T00:51:36.106Z,16.00
2018-08-24T00:54:04.187Z,16.00
2018-08-24T00:56:32.250Z,16.00
2018-08-24T00:59:00.309Z,16.00
2018-08-24T01:01:28.369Z,15.90
2018-08-24T01:03:56.413Z,15.90
2018-08-24T01:06:25.103Z,15.90
2018-08-24T01:08:53.133Z,15.80
2018-08-24T01:11:25.460Z,15.80
2018-08-24T01:13:53.778Z,15.80
2018-08-24T01:16:27.205Z,15.80
2018-08-24T01:18:55.298Z,15.80
2018-08-24T01:21:23.382Z,15.70
2018-08-24T01:23:51.693Z,15.70
2018-08-24T01:26:23.925Z,15.60
2018-08-24T01:28:52.491Z,15.50
2018-08-24T01:31:20.579Z,15.40
2018-08-24T01:33:48.648Z,15.40
2018-08-24T01:36:16.713Z,15.40
2018-08-24T01:38:45.839Z,15.50
2018-08-24T01:41:13.978Z,15.50
2018-08-24T01:43:42.080Z,15.50
2018-08-24T01:46:11.613Z,15.50
2018-08-24T01:48:40.443Z,15.60
2018-08-24T01:51:08.510Z,15.80
2018-08-24T01:53:36.560Z,15.80
2018-08-24T01:56:04.602Z,15.90
2018-08-24T01:58:32.643Z,15.90
2018-08-24T02:01:00.705Z,15.90
2018-08-24T02:03:28.782Z,16.00
2018-08-24T02:06:02.327Z,16.00
2018-08-24T02:08:30.370Z,16.10
2018-08-24T02:10:58.443Z,16.00
2018-08-24T02:13:31.902Z,15.50
2018-08-24T02:15:59.994Z,15.00
2018-08-24T02:18:33.359Z,14.90
2018-08-24T02:21:06.930Z,14.80
2018-08-24T02:23:34.975Z,14.80
2018-08-24T02:26:03.025Z,14.90
2018-08-24T02:28:31.090Z,15.10
2018-08-24T02:31:01.155Z,15.20
2018-08-24T02:33:33.825Z,15.40
2018-08-24T02:36:01.873Z,15.60
2018-08-24T02:38:29.931Z,15.60
2018-08-24T02:40:57.986Z,15.50
2018-08-24T02:43:26.036Z,15.40
2018-08-24T02:45:54.128Z,15.50
2018-08-24T02:48:23.304Z,15.60
2018-08-24T02:50:51.357Z,15.70
2018-08-24T02:53:19.453Z,15.60
2018-08-24T02:55:47.513Z,15.70
2018-08-24T02:58:17.678Z,15.90
2018-08-24T03:00:45.746Z,15.90
2018-08-24T03:03:13.794Z,16.00
2018-08-24T03:05:42.817Z,16.10
2018-08-24T03:08:13.196Z,16.20
2018-08-24T03:10:41.378Z,16.30
2018-08-24T03:13:09.462Z,16.40
2018-08-24T03:15:37.593Z,16.60
2018-08-24T03:18:05.675Z,16.70
2018-08-24T03:20:35.033Z,16.80
2018-08-24T03:23:03.093Z,16.90
2018-08-24T03:25:31.169Z,17.10
2018-08-24T03:28:00.008Z,17.20
2018-08-24T03:30:28.048Z,17.30
2018-08-24T03:32:56.113Z,17.40
2018-08-24T03:35:24.200Z,17.50
2018-08-24T03:37:52.272Z,17.60
2018-08-24T03:40:20.325Z,17.80
2018-08-24T03:42:48.389Z,17.90
2018-08-24T03:45:16.483Z,18.30
2018-08-24T03:47:44.545Z,18.50
2018-08-24T03:50:12.641Z,18.50
2018-08-24T03:52:40.756Z,18.50
2018-08-24T03:55:08.840Z,18.50
2018-08-24T03:57:36.882Z,18.40
2018-08-24T04:00:04.934Z,18.30
2018-08-24T04:02:32.985Z,18.20
2018-08-24T04:05:01.066Z,18.10
2018-08-24T04:07:29.118Z,18.00
2018-08-24T04:09:57.191Z,17.90
2018-08-24T04:12:25.278Z,17.80
2018-08-24T04:14:53.342Z,17.80
2018-08-24T04:17:26.802Z,17.80
2018-08-24T04:19:54.870Z,17.90
2018-08-24T04:22:22.940Z,17.90
2018-08-24T04:24:50.993Z,17.80
2018-08-24T04:27:19.129Z,17.90
2018-08-24T04:29:47.210Z,17.90
2018-08-24T04:32:15.253Z,17.90
2018-08-24T04:34:43.322Z,17.90
2018-08-24T04:37:11.454Z,17.90
2018-08-24T04:39:39.514Z,17.90
2018-08-24T04:42:07.602Z,17.90
2018-08-24T04:44:35.675Z,17.80
2018-08-24T04:47:03.729Z,17.80
2018-08-24T04:49:31.794Z,17.80
2018-08-24T04:51:59.865Z,17.80
2018-08-24T04:54:27.918Z,17.90
2018-08-24T04:56:55.992Z,18.00
2018-08-24T04:59:24.067Z,18.20
2018-08-24T05:01:52.159Z,18.40
2018-08-24T05:04:20.219Z,18.50
2018-08-24T05:06:48.274Z,18.50
2018-08-24T05:09:16.488Z,18.60
2018-08-24T05:11:44.665Z,18.70
2018-08-24T05:14:12.773Z,18.80
2018-08-24T05:16:40.845Z,18.80
2018-08-24T05:19:09.031Z,18.80
2018-08-24T05:21:37.104Z,18.80
2018-08-24T05:24:05.239Z,18.80
2018-08-24T05:26:33.494Z,18.90
2018-08-24T05:29:01.682Z,19.00
2018-08-24T05:31:29.874Z,19.10
2018-08-24T05:33:58.182Z,19.30
2018-08-24T05:36:26.283Z,19.50
2018-08-24T05:38:54.348Z,19.70
2018-08-24T05:41:22.460Z,19.80
2018-08-24T05:43:50.578Z,20.00
2018-08-24T05:46:18.723Z,20.20
2018-08-24T05:48:47.563Z,20.60
2018-08-24T05:51:15.754Z,20.90
2018-08-24T05:53:43.838Z,21.00
2018-08-24T05:56:11.934Z,20.90
2018-08-24T05:58:40.010Z,20.90
2018-08-24T06:01:08.066Z,20.90
2018-08-24T06:03:36.255Z,21.00
2018-08-24T06:06:04.909Z,21.00
2018-08-24T06:08:33.242Z,20.80
2018-08-24T06:11:02.184Z,20.70
2018-08-24T06:13:30.316Z,20.60
2018-08-24T06:15:58.759Z,20.60
2018-08-24T06:18:26.917Z,20.60
2018-08-24T06:20:55.013Z,20.70
2018-08-24T06:23:23.107Z,20.70
2018-08-24T06:25:51.198Z,20.60
2018-08-24T06:28:19.285Z,20.50
2018-08-24T06:30:47.389Z,20.40
2018-08-24T06:33:15.456Z,20.30
2018-08-24T06:35:43.533Z,20.40
2018-08-24T06:38:11.593Z,20.60
2018-08-24T06:40:39.725Z,21.20
2018-08-24T06:43:07.844Z,21.60
2018-08-24T06:45:35.942Z,22.20
2018-08-24T06:48:04.016Z,22.80
2018-08-24T06:50:32.078Z,22.80
2018-08-24T06:53:00.303Z,23.00
2018-08-24T06:55:28.385Z,22.80
2018-08-24T06:57:56.505Z,22.60
2018-08-24T07:00:31.118Z,22.40
2018-08-24T07:02:59.679Z,22.40
2018-08-24T07:05:27.847Z,22.40
2018-08-24T07:07:55.976Z,22.50
2018-08-24T07:10:24.269Z,22.60
2018-08-24T07:12:52.383Z,22.40
2018-08-24T07:15:20.462Z,22.20
2018-08-24T07:17:53.997Z,22.10
2018-08-24T07:20:22.066Z,22.10
2018-08-24T07:22:50.169Z,22.10
2018-08-24T07:25:18.358Z,22.30
2018-08-24T07:27:46.408Z,22.10
2018-08-24T07:30:14.866Z,22.10
2018-08-24T07:32:42.945Z,22.20
2018-08-24T07:35:11.023Z,22.40
2018-08-24T07:37:39.215Z,22.50
2018-08-24T07:40:07.360Z,22.70
2018-08-24T07:42:35.529Z,22.80
2018-08-24T07:45:03.645Z,22.90
2018-08-24T07:47:31.713Z,23.10
2018-08-24T07:49:59.874Z,23.20
2018-08-24T07:52:28.023Z,23.60
2018-08-24T07:54:56.091Z,23.80
2018-08-24T07:57:24.195Z,24.10
2018-08-24T07:59:52.287Z,24.30
2018-08-24T08:02:24.635Z,25.20
2018-08-24T08:04:52.749Z,26.10
2018-08-24T08:07:20.818Z,27.00
2018-08-24T08:09:48.951Z,28.00
2018-08-24T08:12:17.106Z,28.50
2018-08-24T08:14:50.587Z,28.90
2018-08-24T08:17:18.694Z,28.60
2018-08-24T08:19:46.928Z,28.60
2018-08-24T08:22:15.124Z,28.50
2018-08-24T08:24:43.263Z,28.30
2018-08-24T08:27:11.300Z,28.50
2018-08-24T08:29:44.755Z,29.10
2018-08-24T08:32:12.830Z,30.00
2018-08-24T08:34:46.486Z,30.20
2018-08-24T08:37:14.563Z,30.00
2018-08-24T08:39:42.646Z,29.00
2018-08-24T08:42:10.773Z,28.10
2018-08-24T08:44:38.868Z,27.30
2018-08-24T08:47:07.075Z,26.60
2018-08-24T08:49:35.142Z,26.50
2018-08-24T08:52:03.270Z,26.30
2018-08-24T08:54:31.342Z,25.90
2018-08-24T08:56:59.441Z,26.00
2018-08-24T08:59:27.521Z,26.50
2018-08-24T09:01:55.965Z,26.70
2018-08-24T09:04:24.034Z,26.80
2018-08-24T09:06:52.222Z,26.60
2018-08-24T09:09:20.283Z,27.30
2018-08-24T09:11:48.435Z,27.90
2018-08-24T09:14:16.509Z,28.10
2018-08-24T09:16:45.578Z,28.40
2018-08-24T09:21:26.577Z,27.10
2018-08-24T09:24:00.117Z,25.60
2018-08-24T09:26:33.477Z,24.70
2018-08-24T09:29:08.668Z,24.70
2018-08-24T09:31:38.313Z,25.50
2018-08-24T09:34:06.523Z,26.00
2018-08-24T09:36:34.579Z,25.50
2018-08-24T09:39:03.344Z,24.90
2018-08-24T09:41:31.483Z,24.10
2018-08-24T09:44:00.402Z,23.60
2018-08-24T09:46:33.936Z,23.30
2018-08-24T09:49:07.415Z,22.80
2018-08-24T09:51:35.432Z,22.60
2018-08-24T09:54:07.752Z,22.30
2018-08-24T09:56:37.644Z,22.10
2018-08-24T09:59:05.785Z,22.10
2018-08-24T10:01:39.257Z,21.70
2018-08-24T10:04:12.813Z,21.50
2018-08-24T10:06:46.495Z,21.20
2018-08-24T10:09:15.538Z,20.50
2018-08-24T10:11:43.603Z,20.10
2018-08-24T10:14:12.447Z,20.00
2018-08-24T10:16:40.619Z,20.00
2018-08-24T10:19:11.936Z,20.00
2018-08-24T10:21:39.994Z,20.00
2018-08-24T10:24:08.365Z,20.00
2018-08-24T10:26:36.475Z,19.80
2018-08-24T10:29:04.985Z,19.50
2018-08-24T10:31:33.052Z,19.20
2018-08-24T10:34:01.106Z,19.00
2018-08-24T10:36:29.166Z,18.70
2018-08-24T10:38:57.956Z,18.50
2018-08-24T10:41:25.999Z,18.40
2018-08-24T10:43:54.054Z,18.50
2018-08-24T10:46:22.214Z,18.40
2018-08-24T10:48:50.285Z,18.10
2018-08-24T10:51:18.351Z,17.80
2018-08-24T10:53:46.431Z,17.60
2018-08-24T10:56:14.529Z,17.50
2018-08-24T10:58:42.554Z,17.60
2018-08-24T11:01:10.607Z,17.80
2018-08-24T11:03:38.717Z,18.00
2018-08-24T11:06:06.847Z,18.40
2018-08-24T11:08:34.910Z,18.80
2018-08-24T11:11:02.956Z,19.30
2018-08-24T11:13:31.013Z,20.00
2018-08-24T11:15:59.085Z,21.40
2018-08-24T11:18:27.212Z,22.50
2018-08-24T11:20:55.280Z,24.00
2018-08-24T11:23:23.355Z,23.70
2018-08-24T11:25:51.433Z,23.90
2018-08-24T11:28:19.515Z,25.10
2018-08-24T11:30:47.579Z,27.00
2018-08-24T11:33:15.662Z,27.90
2018-08-24T11:35:43.735Z,27.50
2018-08-24T11:38:11.816Z,27.20
2018-08-24T11:40:39.905Z,27.40
2018-08-24T11:43:08.053Z,28.00
2018-08-24T11:45:36.150Z,28.00
2018-08-24T11:48:04.249Z,26.60
2018-08-24T11:50:32.357Z,25.80
2018-08-24T11:53:00.432Z,25.10
2018-08-24T11:55:28.627Z,26.20
2018-08-24T11:57:56.729Z,26.70
2018-08-24T12:00:30.385Z,26.90
2018-08-24T12:02:58.599Z,27.70
2018-08-24T12:05:26.713Z,28.00
2018-08-24T12:07:55.573Z,27.40
2018-08-24T12:10:23.634Z,27.30
2018-08-24T12:12:51.772Z,27.10
2018-08-24T12:15:19.841Z,27.00
2018-08-24T12:17:48.016Z,26.30
2018-08-24T12:20:16.122Z,25.70
2018-08-24T12:22:44.329Z,24.60
2018-08-24T12:25:12.428Z,24.30
2018-08-24T12:27:40.547Z,24.20
2018-08-24T12:30:08.643Z,24.30
2018-08-24T12:32:36.722Z,24.40
2018-08-24T12:35:04.965Z,24.30
2018-08-24T12:37:37.279Z,24.60
2018-08-24T12:40:05.353Z,24.80
2018-08-24T12:42:33.402Z,25.00
2018-08-24T12:45:01.475Z,25.20
2018-08-24T12:47:29.675Z,25.40
2018-08-24T12:49:58.072Z,25.40
2018-08-24T12:52:26.232Z,25.30
2018-08-24T12:54:54.331Z,26.00
2018-08-24T12:57:26.473Z,26.80
2018-08-24T12:59:54.608Z,27.60
2018-08-24T13:02:22.642Z,27.70
2018-08-24T13:04:50.727Z,28.30
2018-08-24T13:07:18.817Z,30.20
2018-08-24T13:09:46.985Z,31.30
2018-08-24T13:12:15.058Z,31.90
2018-08-24T13:14:43.149Z,31.40
2018-08-24T13:17:12.044Z,32.60
2018-08-24T13:19:40.131Z,33.40
2018-08-24T13:22:08.266Z,32.90
2018-08-24T13:24:36.355Z,33.00
2018-08-24T13:27:04.542Z,33.50
2018-08-24T13:29:32.628Z,33.80
2018-08-24T13:32:00.720Z,34.00
2018-08-24T13:34:28.797Z,34.20
2018-08-24T13:36:56.955Z,34.40
2018-08-24T13:39:25.027Z,33.40
2018-08-24T13:41:53.178Z,33.00
2018-08-24T13:44:21.289Z,31.80
2018-08-24T13:46:52.447Z,31.70
2018-08-24T13:49:20.593Z,31.40
2018-08-24T13:51:49.154Z,32.00
2018-08-24T13:54:17.265Z,32.10
2018-08-24T13:56:45.563Z,32.00
2018-08-24T13:59:13.711Z,32.20
2018-08-24T14:01:41.824Z,32.50
2018-08-24T14:04:10.036Z,31.10
2018-08-24T14:06:38.085Z,29.50
2018-08-24T14:09:07.853Z,27.90
2018-08-24T14:11:35.965Z,26.60
2018-08-24T14:14:04.060Z,25.60
2018-08-24T14:16:32.130Z,24.60
2018-08-24T14:19:00.283Z,23.90
2018-08-24T14:21:28.395Z,23.30
2018-08-24T14:23:56.507Z,22.90
2018-08-24T14:26:24.616Z,22.60
2018-08-24T14:28:52.631Z,22.40
2018-08-24T14:31:20.735Z,22.30
2018-08-24T14:33:48.811Z,22.20
2018-08-24T14:36:16.911Z,22.00
2018-08-24T14:38:45.007Z,21.90
2018-08-24T14:41:13.099Z,21.90
2018-08-24T14:43:41.181Z,22.00
2018-08-24T14:46:09.237Z,22.00
2018-08-24T14:48:37.332Z,22.10
2018-08-24T14:51:05.443Z,22.00
2018-08-24T14:53:33.503Z,22.00
2018-08-24T14:56:01.592Z,21.80
2018-08-24T14:58:29.649Z,21.90
2018-08-24T15:00:57.725Z,21.90
2018-08-24T15:03:25.883Z,22.10
2018-08-24T15:05:54.006Z,22.60
2018-08-24T15:08:22.104Z,23.40
2018-08-24T15:10:50.166Z,23.90
2018-08-24T15:13:18.279Z,24.00
2018-08-24T15:15:46.394Z,24.20
2018-08-24T15:18:14.463Z,25.00
2018-08-24T15:20:42.563Z,25.00
2018-08-24T15:23:10.696Z,24.70
2018-08-24T15:25:38.809Z,24.00
2018-08-24T15:28:06.903Z,23.30
2018-08-24T15:30:35.184Z,22.80
2018-08-24T15:33:03.232Z,22.30
2018-08-24T15:35:31.310Z,22.00
2018-08-24T15:37:59.385Z,22.40
2018-08-24T15:40:27.511Z,22.80
2018-08-24T15:42:55.587Z,23.10
2018-08-24T15:45:23.636Z,23.30
2018-08-24T15:47:51.741Z,23.10
2018-08-24T15:50:19.811Z,22.70
2018-08-24T15:52:47.894Z,23.40
2018-08-24T15:55:15.969Z,23.60
2018-08-24T15:57:44.026Z,23.30
2018-08-24T16:00:12.177Z,22.80
2018-08-24T16:02:40.210Z,22.60
2018-08-24T16:05:08.282Z,22.50
2018-08-24T16:07:38.603Z,22.30
2018-08-24T16:10:08.246Z,22.30
2018-08-24T16:12:36.494Z,22.40
2018-08-24T16:15:04.739Z,22.40
2018-08-24T16:17:32.855Z,22.30
2018-08-24T16:20:00.952Z,22.10
2018-08-24T16:22:29.011Z,21.80
2018-08-24T16:24:57.118Z,21.60
2018-08-24T16:27:25.819Z,21.40
2018-08-24T16:29:55.951Z,21.30
2018-08-24T16:32:24.085Z,21.20
2018-08-24T16:34:52.221Z,21.00
2018-08-24T16:37:20.514Z,21.00
2018-08-24T16:39:48.634Z,20.90
2018-08-24T16:42:16.718Z,20.90
2018-08-24T16:44:45.102Z,20.80
2018-08-24T16:47:13.212Z,20.80
2018-08-24T16:49:42.331Z,20.70
2018-08-24T16:52:10.573Z,20.60
2018-08-24T16:54:38.648Z,20.50
2018-08-24T16:57:07.204Z,20.40
2018-08-24T16:59:35.270Z,20.30
2018-08-24T17:02:03.372Z,20.20
2018-08-24T17:04:31.453Z,20.10
2018-08-24T17:06:59.628Z,20.00
2018-08-24T17:09:27.754Z,20.00
2018-08-24T17:11:55.976Z,19.90
2018-08-24T17:14:24.027Z,19.90
2018-08-24T17:16:55.949Z,19.80
2018-08-24T17:19:25.097Z,19.80
2018-08-24T17:21:53.158Z,19.80
2018-08-24T17:24:21.243Z,19.70
2018-08-24T17:26:49.330Z,19.70
2018-08-24T17:29:17.437Z,19.60
2018-08-24T17:31:45.589Z,19.40
2018-08-24T17:34:13.642Z,19.30
2018-08-24T17:36:41.701Z,19.00
2018-08-24T17:39:10.982Z,18.80
2018-08-24T17:41:39.089Z,18.60
2018-08-24T17:44:07.231Z,18.50
2018-08-24T17:46:35.317Z,18.30
2018-08-24T17:49:04.094Z,18.20
2018-08-24T17:51:32.166Z,18.10
2018-08-24T17:54:00.212Z,17.80
2018-08-24T17:56:28.290Z,17.60
2018-08-24T17:58:56.364Z,17.40
2018-08-24T18:01:24.498Z,17.10
2018-08-24T18:03:52.526Z,17.00
2018-08-24T18:06:20.557Z,16.80
2018-08-24T18:08:48.596Z,16.60
2018-08-24T18:11:16.833Z,16.50
2018-08-24T18:13:44.926Z,16.30
2018-08-24T18:16:12.998Z,16.20
2018-08-24T18:18:41.222Z,16.00
2018-08-24T18:21:10.779Z,15.80
2018-08-24T18:23:39.100Z,15.70
2018-08-24T18:26:07.723Z,15.60
2018-08-24T18:28:35.777Z,15.60
2018-08-24T18:31:03.924Z,15.60
2018-08-24T18:33:31.975Z,15.50
2018-08-24T18:36:00.038Z,15.50
2018-08-24T18:38:28.226Z,15.40
2018-08-24T18:40:56.282Z,15.40
2018-08-24T18:43:24.357Z,15.30
2018-08-24T18:45:52.539Z,15.30
2018-08-24T18:48:20.594Z,15.40
2018-08-24T18:50:48.731Z,15.60
2018-08-24T18:53:16.713Z,15.90
2018-08-24T18:55:44.861Z,16.00
2018-08-24T18:58:12.913Z,16.00
2018-08-24T19:00:40.963Z,16.20
2018-08-24T19:03:09.071Z,16.30
2018-08-24T19:05:37.135Z,16.30
2018-08-24T19:08:10.546Z,16.30
2018-08-24T19:10:44.310Z,16.30
2018-08-24T19:13:14.313Z,16.40
2018-08-24T19:15:42.633Z,16.50
2018-08-24T19:18:16.042Z,16.40
2018-08-24T19:20:49.564Z,16.50
2018-08-24T19:23:17.568Z,16.50
2018-08-24T19:25:45.614Z,16.70
2018-08-24T19:28:19.289Z,16.80
2018-08-24T19:30:47.356Z,16.80
2018-08-24T19:33:15.441Z,16.80
2018-08-24T19:35:43.487Z,16.70
2018-08-24T19:38:11.568Z,16.60
2018-08-24T19:40:45.144Z,16.50
2018-08-24T19:43:13.272Z,16.40
2018-08-24T19:45:41.631Z,16.30
2018-08-24T19:49:13.745Z,16.20
2018-08-24T19:51:41.779Z,16.10
2018-08-24T19:54:09.839Z,15.90
2018-08-24T19:56:37.994Z,15.70
2018-08-24T19:59:07.939Z,15.60
2018-08-24T20:01:35.989Z,15.40
2018-08-24T20:04:05.155Z,15.30
2018-08-24T20:06:38.666Z,15.20
2018-08-24T20:09:14.390Z,15.10
2018-08-24T20:11:43.598Z,15.00
2018-08-24T20:14:11.673Z,15.00
2018-08-24T20:19:08.782Z,14.90
2018-08-24T20:21:36.843Z,14.80
2018-08-24T20:24:05.098Z,14.70
2018-08-24T20:26:33.127Z,14.60
2018-08-24T20:29:01.202Z,14.50
2018-08-24T20:31:29.288Z,14.50
2018-08-24T20:33:57.365Z,14.40
2018-08-24T20:36:26.510Z,14.30
2018-08-24T20:38:54.628Z,14.30
2018-08-24T20:41:22.685Z,14.20
2018-08-24T20:43:50.754Z,14.10
2018-08-24T20:46:18.848Z,14.00
2018-08-24T20:48:46.942Z,14.00
2018-08-24T20:51:14.967Z,13.90
2018-08-24T20:53:43.019Z,13.80
2018-08-24T20:56:11.121Z,13.80
2018-08-24T20:58:39.183Z,13.80
2018-08-24T21:01:07.300Z,13.70
2018-08-24T21:09:22.018Z,13.30
2018-08-24T21:11:50.100Z,13.20
2018-08-24T21:14:19.285Z,13.10
2018-08-24T21:16:47.355Z,13.00
2018-08-24T21:19:15.409Z,12.90
2018-08-24T21:21:43.541Z,12.90
2018-08-24T21:24:11.610Z,12.90
2018-08-24T21:26:39.660Z,12.80
2018-08-24T21:29:07.836Z,12.80
2018-08-24T21:31:35.840Z,12.80
2018-08-24T21:34:03.972Z,12.70
2018-08-24T21:36:32.033Z,12.70
2018-08-24T21:39:00.103Z,12.60
2018-08-24T21:41:28.163Z,12.70
2018-08-24T21:43:57.286Z,12.60
2018-08-24T21:46:25.334Z,12.60
2018-08-24T21:48:53.392Z,12.60
2018-08-24T21:57:06.878Z,12.50
2018-08-24T21:59:34.936Z,12.50
2018-08-24T22:02:02.978Z,12.50
2018-08-24T22:04:31.042Z,12.50
2018-08-24T22:06:59.105Z,12.50
2018-08-24T22:09:29.236Z,12.50
2018-08-24T22:11:57.360Z,12.50
2018-08-24T22:14:25.419Z,12.40
2018-08-24T22:16:53.766Z,12.40
2018-08-24T22:19:21.780Z,12.40
2018-08-24T22:21:49.868Z,12.40
2018-08-24T22:24:17.924Z,12.50
2018-08-24T22:26:45.993Z,12.50
2018-08-24T22:29:14.070Z,12.50
2018-08-24T22:31:42.129Z,12.50
2018-08-24T22:34:10.185Z,12.50
2018-08-24T22:36:38.238Z,12.60
2018-08-24T22:39:07.501Z,12.60
2018-08-24T22:41:35.569Z,12.60
2018-08-24T22:44:03.794Z,12.60
2018-08-24T22:46:31.883Z,12.60
2018-08-24T22:48:59.952Z,12.60
2018-08-24T22:51:28.010Z,12.50
2018-08-24T22:53:56.081Z,12.50
2018-08-24T22:56:24.184Z,12.50
2018-08-24T22:58:52.265Z,12.50
2018-08-24T23:01:20.323Z,12.50
2018-08-24T23:03:48.382Z,12.40
2018-08-24T23:06:16.451Z,12.40
2018-08-24T23:08:44.513Z,12.30
2018-08-24T23:11:13.712Z,12.30
2018-08-24T23:13:41.787Z,12.20
2018-08-24T23:16:09.846Z,12.20
2018-08-24T23:18:37.961Z,12.10
2018-08-24T23:21:06.023Z,12.00
2018-08-24T23:23:34.075Z,12.10
2018-08-24T23:26:02.131Z,12.10
2018-08-24T23:28:30.182Z,12.10
2018-08-24T23:30:58.243Z,12.10
2018-08-24T23:33:26.294Z,12.00
2018-08-24T23:35:54.357Z,12.00
2018-08-24T23:38:22.403Z,11.90
2018-08-24T23:40:50.459Z,11.90
2018-08-24T23:43:18.534Z,11.80
2018-08-24T23:45:46.704Z,11.80
2018-08-24T23:48:18.119Z,11.80
2018-08-24T23:50:46.198Z,11.80
2018-08-24T23:53:14.254Z,11.90
2018-08-24T23:55:42.355Z,11.80
2018-08-24T23:58:10.408Z,11.80
